Time;durP1;ratioP1;P1;durP2;ratioP2;P2;SDS_P1;SDS_P2;PMS_P1;PMS_P2;Temp;Humidity;BMP_temperature;BMP_pressure;BME280_temperature;BME280_humidity;BME280_pressure;Samples;Min_cycle;Max_cycle;Signal;HPM_P1;HPM_P2
2022/08/03 00:00:16;;;;;;;13.38;3.92;;;;;;;21.67;64.38;101130.38;5093461;28;20447;-58
2022/08/03 00:02:43;;;;;;;11.15;4.07;;;;;;;21.65;64.73;101121.69;5092676;28;20048;-59
2022/08/03 00:05:10;;;;;;;9.68;3.88;;;;;;;21.61;64.76;101124.00;5092094;28;20052;-59
2022/08/03 00:07:37;;;;;;;11.55;4.30;;;;;;;21.57;64.83;101116.53;5094016;28;20068;-59
2022/08/03 00:10:04;;;;;;;9.55;3.90;;;;;;;21.58;64.96;101121.72;5093550;28;20486;-59
2022/08/03 00:12:31;;;;;;;11.18;4.00;;;;;;;21.58;64.93;101123.59;5093579;28;20044;-59
2022/08/03 00:14:57;;;;;;;10.52;3.83;;;;;;;21.58;64.59;101119.03;5093173;28;20420;-59
2022/08/03 00:17:24;;;;;;;10.23;3.88;;;;;;;21.56;64.42;101121.13;5093750;28;20052;-59
2022/08/03 00:19:51;;;;;;;13.75;4.25;;;;;;;21.53;64.98;101118.03;5093467;28;20071;-59
2022/08/03 00:22:19;;;;;;;12.63;4.30;;;;;;;21.56;65.23;101113.03;5092504;28;20043;-59
2022/08/03 00:24:45;;;;;;;11.38;4.35;;;;;;;21.54;64.84;101116.97;5092171;28;20043;-59
2022/08/03 00:27:12;;;;;;;13.75;4.07;;;;;;;21.50;64.76;101116.56;5093415;28;20040;-58
2022/08/03 00:29:39;;;;;;;14.77;4.28;;;;;;;21.47;65.06;101111.63;5093602;28;20077;-58
2022/08/03 00:32:05;;;;;;;11.77;4.40;;;;;;;21.47;65.17;101109.75;5091523;28;20044;-58
2022/08/03 00:34:32;;;;;;;12.27;4.10;;;;;;;21.42;65.60;101112.22;5093322;28;20074;-58
2022/08/03 00:36:59;;;;;;;17.52;4.15;;;;;;;21.40;65.21;101117.03;5092952;28;20051;-58
2022/08/03 00:39:25;;;;;;;15.88;4.30;;;;;;;21.35;65.51;101108.75;5093268;28;20151;-57
2022/08/03 00:41:52;;;;;;;11.68;4.32;;;;;;;21.33;65.58;101112.72;5092378;28;20375;-58
2022/08/03 00:44:19;;;;;;;12.93;4.18;;;;;;;21.32;65.69;101108.34;5092100;28;20056;-58
2022/08/03 00:46:46;;;;;;;12.73;4.45;;;;;;;21.32;65.63;101100.25;5093065;28;20068;-58
2022/08/03 00:49:13;;;;;;;12.90;4.50;;;;;;;21.27;65.95;101096.34;5091918;28;20075;-58
2022/08/03 00:51:39;;;;;;;16.75;4.45;;;;;;;21.23;65.98;101100.53;5093175;28;20052;-58
2022/08/03 00:54:06;;;;;;;10.02;4.28;;;;;;;21.23;66.34;101099.72;5091825;28;20044;-58
2022/08/03 00:56:33;;;;;;;14.70;4.68;;;;;;;21.23;66.65;101102.41;5093029;28;20050;-58
2022/08/03 00:59:00;;;;;;;13.52;4.97;;;;;;;21.19;66.71;101103.84;5092981;28;20090;-58
2022/08/03 01:01:26;;;;;;;16.27;5.20;;;;;;;21.24;66.23;101096.75;5092587;28;20055;-58
2022/08/03 01:03:53;;;;;;;16.73;4.90;;;;;;;21.20;66.59;101100.13;5093243;28;20378;-58
2022/08/03 01:06:35;;;;;;;15.75;5.30;;;;;;;21.19;66.87;101090.38;5092072;28;20172;-58
2022/08/03 01:09:16;;;;;;;17.05;5.40;;;;;;;21.17;66.90;101101.38;5110208;28;20043;-58
2022/08/03 01:11:52;;;;;;;29.48;5.43;;;;;;;21.15;67.39;101097.25;5113048;28;20039;-58
2022/08/03 01:14:26;;;;;;;18.48;5.38;;;;;;;21.11;67.26;101091.44;5111525;28;20093;-57
2022/08/03 01:17:00;;;;;;;12.52;5.00;;;;;;;21.14;67.15;101093.72;5113386;28;20046;-57
2022/08/03 01:19:48;;;;;;;16.08;5.25;;;;;;;21.12;67.36;101090.44;5102413;28;20039;-58
2022/08/03 01:22:31;;;;;;;18.67;5.80;;;;;;;21.11;67.13;101085.25;5093004;28;20044;-57
2022/08/03 01:25:17;;;;;;;14.55;5.20;;;;;;;21.11;67.28;101083.38;5092751;28;20051;-58
2022/08/03 01:28:01;;;;;;;14.45;5.07;;;;;;;21.14;67.19;101088.34;5093071;28;20437;-58
2022/08/03 01:30:32;;;;;;;11.82;5.10;;;;;;;21.13;67.01;101092.06;5092994;28;20044;-58
2022/08/03 01:33:05;;;;;;;15.07;5.07;;;;;;;21.11;67.16;101090.63;5092987;28;20048;-59
2022/08/03 01:35:41;;;;;;;15.60;5.88;;;;;;;;;;5092199;28;20039;-59
2022/08/03 01:38:12;;;;;;;16.85;5.25;;;;;;;21.11;67.03;101087.94;5093021;28;20509;-59
2022/08/03 01:40:41;;;;;;;17.95;5.22;;;;;;;21.05;67.36;101090.44;5092583;28;20052;-59
2022/08/03 01:43:15;;;;;;;11.93;5.38;;;;;;;21.06;67.42;101084.00;5091733;28;20050;-60
2022/08/03 01:45:42;;;;;;;15.75;5.43;;;;;;;21.04;67.24;101087.97;5082810;28;20367;-59
2022/08/03 01:48:11;;;;;;;14.32;5.10;;;;;;;20.99;67.46;101091.31;5096619;28;20048;-58
2022/08/03 01:50:39;;;;;;;16.40;5.20;;;;;;;20.99;67.46;101085.94;5094998;28;20067;-58
2022/08/03 01:53:08;;;;;;;11.88;5.50;;;;;;;20.97;67.78;101085.28;5096343;28;20083;-58
2022/08/03 01:55:37;;;;;;;20.35;5.60;;;;;;;20.90;68.08;101079.09;5096209;28;20048;-58
2022/08/03 01:58:07;;;;;;;15.88;5.20;;;;;;;20.89;67.82;101080.16;5096450;28;20048;-58
2022/08/03 02:00:36;;;;;;;13.07;5.55;;;;;;;20.87;67.92;101082.25;5095966;28;20042;-59
2022/08/03 02:03:06;;;;;;;22.15;5.43;;;;;;;20.88;68.34;101084.72;5095926;28;20482;-58
2022/08/03 02:05:34;;;;;;;13.50;5.72;;;;;;;20.81;68.79;101081.22;5095463;28;20044;-59
2022/08/03 02:08:03;;;;;;;16.27;5.90;;;;;;;20.78;68.78;101076.25;5096235;28;20425;-59
2022/08/03 02:10:32;;;;;;;14.82;5.90;;;;;;;20.75;68.97;101079.38;5095793;28;20048;-59
2022/08/03 02:13:01;;;;;;;14.30;6.05;;;;;;;20.73;68.96;101078.75;5096097;28;20074;-59
2022/08/03 02:15:31;;;;;;;20.55;6.05;;;;;;;20.66;69.23;101081.47;5095626;28;20036;-59
2022/08/03 02:18:00;;;;;;;14.70;6.30;;;;;;;20.64;68.83;101086.25;5096077;28;20113;-59
2022/08/03 02:20:31;;;;;;;22.40;6.50;;;;;;;20.69;69.03;101081.06;5094303;28;20065;-59
2022/08/03 02:22:58;;;;;;;16.92;6.35;;;;;;;20.66;69.10;101075.25;5095974;28;20040;-60
2022/08/03 02:25:29;;;;;;;18.98;6.97;;;;;;;20.64;69.38;101085.44;5095823;28;20048;-59
2022/08/03 02:28:04;;;;;;;14.60;5.97;;;;;;;20.64;69.47;101085.44;5095807;28;20127;-59
2022/08/03 02:30:37;;;;;;;17.17;6.20;;;;;;;20.61;69.37;101083.16;5095013;28;20435;-59
2022/08/03 02:33:09;;;;;;;16.50;7.10;;;;;;;20.60;69.37;101076.91;5094412;28;20051;-58
2022/08/03 02:35:39;;;;;;;15.65;5.97;;;;;;;20.57;69.60;101081.91;5094099;28;20139;-59
2022/08/03 02:38:09;;;;;;;12.00;6.10;;;;;;;20.52;69.56;101086.06;5095367;28;20040;-59
2022/08/03 02:40:39;;;;;;;19.40;6.80;;;;;;;20.54;69.88;101080.47;5094030;28;20048;-59
2022/08/03 02:43:09;;;;;;;13.50;6.05;;;;;;;20.53;69.91;101074.22;5095494;28;20056;-59
2022/08/03 02:45:42;;;;;;;12.80;6.38;;;;;;;20.52;70.15;101071.75;5095237;28;20048;-58
2022/08/03 02:48:14;;;;;;;13.82;6.15;;;;;;;20.48;70.36;101076.75;5095400;28;20052;-59
2022/08/03 02:50:43;;;;;;;17.83;6.80;;;;;;;20.41;70.37;101067.84;5095194;28;20051;-59
2022/08/03 02:53:11;;;;;;;14.70;6.40;;;;;;;20.37;70.44;101072.00;5094987;28;20098;-58
2022/08/03 02:55:39;;;;;;;16.13;6.05;;;;;;;20.37;70.38;101073.88;5094812;28;20044;-58
2022/08/03 02:58:06;;;;;;;16.30;6.68;;;;;;;20.32;70.56;101067.25;5094965;28;20079;-58
2022/08/03 03:00:34;;;;;;;12.13;6.40;;;;;;;20.29;70.78;101067.66;5094867;28;20043;-58
2022/08/03 03:03:01;;;;;;;24.98;6.78;;;;;;;20.31;70.57;101076.34;5094992;28;20063;-58
2022/08/03 03:05:29;;;;;;;16.17;6.55;;;;;;;20.26;70.69;101076.16;5076334;28;20051;-59
2022/08/03 03:07:57;;;;;;;15.73;6.60;;;;;;;20.25;70.73;101074.50;5092250;28;20089;-59
2022/08/03 03:10:25;;;;;;;15.57;6.53;;;;;;;20.26;70.71;101067.25;5074571;28;20048;-59
2022/08/03 03:12:55;;;;;;;15.68;6.90;;;;;;;20.26;71.12;101065.38;5073212;28;20132;-58
2022/08/03 03:15:26;;;;;;;17.38;6.63;;;;;;;20.23;70.89;101067.66;5074158;28;20048;-58
2022/08/03 03:17:54;;;;;;;12.05;6.38;;;;;;;20.10;71.24;101071.19;5074454;28;20051;-58
2022/08/03 03:20:22;;;;;;;15.88;7.45;;;;;;;20.10;71.37;101074.75;5092578;28;20071;-58
2022/08/03 03:22:49;;;;;;;14.80;6.50;;;;;;;20.13;71.79;101074.31;5094388;28;20555;-57
2022/08/03 03:25:17;;;;;;;17.30;6.57;;;;;;;20.11;71.69;101081.78;5094613;28;20048;-57
2022/08/03 03:27:45;;;;;;;17.30;6.95;;;;;;;20.12;71.90;101078.06;5094257;28;20521;-57
2022/08/03 03:30:12;;;;;;;16.40;6.70;;;;;;;20.09;71.65;101077.66;5093781;28;20044;-60
2022/08/03 03:32:40;;;;;;;16.25;6.63;;;;;;;20.08;72.15;101076.81;5094343;28;20043;-59
2022/08/03 03:35:08;;;;;;;19.48;6.68;;;;;;;20.07;72.41;101077.03;5094121;28;20079;-57
2022/08/03 03:37:35;;;;;;;17.60;6.47;;;;;;;20.06;72.48;101086.94;5094011;28;20058;-58
2022/08/03 03:40:02;;;;;;;17.23;6.68;;;;;;;20.03;72.06;101078.47;5094831;28;20071;-58
2022/08/03 03:42:29;;;;;;;15.13;7.25;;;;;;;20.02;72.40;101076.81;5094245;28;20048;-58
2022/08/03 03:44:56;;;;;;;19.92;6.93;;;;;;;19.99;72.69;101075.34;5093711;28;20047;-58
2022/08/03 03:47:23;;;;;;;14.02;6.50;;;;;;;20.02;72.98;101080.34;5094118;28;20048;-58
2022/08/03 03:49:49;;;;;;;19.13;7.00;;;;;;;19.93;73.49;101082.41;5094063;28;20048;-58
2022/08/03 03:52:16;;;;;;;14.95;7.60;;;;;;;19.97;73.22;101076.63;5094211;28;20044;-58
2022/08/03 03:54:44;;;;;;;16.20;7.03;;;;;;;20.00;73.42;101082.41;5094069;28;20385;-58
2022/08/03 03:57:11;;;;;;;17.98;7.22;;;;;;;19.98;73.61;101080.97;5093716;28;20131;-58
2022/08/03 03:59:38;;;;;;;14.70;7.35;;;;;;;19.92;73.75;101079.94;5094116;28;20091;-58
2022/08/03 04:02:06;;;;;;;14.90;6.70;;;;;;;19.86;74.29;101081.56;5093747;28;20044;-58
2022/08/03 04:13:08;;;;;;;15.70;7.03;;;;;;;19.88;74.17;101090.31;5093433;28;20043;-58
2022/08/03 04:15:38;;;;;;;17.38;7.35;;;;;;;19.85;74.38;101084.50;5093474;28;20044;-58
2022/08/03 04:18:10;;;;;;;15.45;7.20;;;;;;;19.84;74.57;101086.34;5092989;28;20067;-58
2022/08/03 04:20:39;;;;;;;15.13;7.45;;;;;;;19.86;74.68;101081.56;5073483;28;20040;-58
2022/08/03 04:23:07;;;;;;;19.23;7.32;;;;;;;19.90;74.47;101084.69;5073402;28;20049;-58
2022/08/03 04:25:36;;;;;;;24.65;7.40;;;;;;;19.89;74.37;101096.50;5073076;28;20478;-58
2022/08/03 04:28:05;;;;;;;18.17;7.15;;;;;;;19.85;74.26;101092.56;5073407;28;20050;-58
2022/08/03 04:30:34;;;;;;;16.90;6.97;;;;;;;19.92;74.30;101093.41;5073167;28;20044;-58
2022/08/03 04:33:02;;;;;;;15.80;7.30;;;;;;;19.89;74.02;101091.94;5072766;28;20082;-58
2022/08/03 04:35:33;;;;;;;15.48;6.88;;;;;;;19.89;73.94;101096.50;5072693;28;20053;-57
2022/08/03 04:38:04;;;;;;;15.70;7.70;;;;;;;19.89;74.07;101091.13;5073456;28;20413;-58
2022/08/03 04:40:34;;;;;;;18.77;7.10;;;;;;;19.91;74.18;101095.25;5072803;28;20037;-58
2022/08/03 04:43:01;;;;;;;16.50;7.78;;;;;;;19.88;74.36;101095.69;5073049;28;20106;-58
2022/08/03 04:45:29;;;;;;;15.18;7.32;;;;;;;19.93;73.74;101092.34;5072581;28;20425;-58
2022/08/03 04:47:56;;;;;;;15.13;7.10;;;;;;;19.86;74.12;101092.34;5071962;28;20041;-58
2022/08/03 04:50:24;;;;;;;16.50;7.53;;;;;;;19.92;73.94;101091.53;5072821;28;20040;-58
2022/08/03 04:53:06;;;;;;;20.27;7.50;;;;;;;19.94;74.19;101096.72;5073004;28;20064;-58
2022/08/03 04:55:34;;;;;;;17.20;7.00;;;;;;;19.95;74.09;101098.34;5072956;28;20075;-58
2022/08/03 04:58:02;;;;;;;22.45;8.23;;;;;;;20.00;73.79;101101.25;5073104;28;20045;-58
2022/08/03 05:00:29;;;;;;;17.33;7.40;;;;;;;20.00;73.84;101100.44;5072501;28;20032;-58
2022/08/03 05:02:56;;;;;;;22.95;7.60;;;;;;;19.99;74.17;101102.28;5072861;28;20040;-58
2022/08/03 05:05:23;;;;;;;16.88;7.80;;;;;;;20.00;74.01;101097.75;5072376;28;20052;-57
2022/08/03 05:07:50;;;;;;;22.45;8.80;;;;;;;20.00;74.13;101100.44;5072954;28;20106;-57
2022/08/03 05:10:17;;;;;;;21.83;7.95;;;;;;;20.00;74.23;101103.13;5076101;28;20371;-58
2022/08/03 05:12:46;;;;;;;22.17;8.02;;;;;;;20.04;73.93;101098.97;5072678;28;20509;-57
2022/08/03 05:15:13;;;;;;;17.48;7.90;;;;;;;20.05;74.26;101101.47;5071409;28;20072;-58
2022/08/03 05:17:40;;;;;;;18.95;7.78;;;;;;;20.09;74.13;101115.34;5088454;28;20048;-58
2022/08/03 05:20:07;;;;;;;16.77;7.32;;;;;;;20.05;74.21;101103.34;5091770;28;20036;-58
2022/08/03 05:22:34;;;;;;;19.55;7.18;;;;;;;20.14;74.19;101104.78;5096950;28;20093;-57
2022/08/03 05:25:02;;;;;;;14.90;7.65;;;;;;;20.20;73.11;101103.94;5096762;28;20052;-58
2022/08/03 05:27:29;;;;;;;17.77;8.30;;;;;;;20.26;73.22;101113.84;5096858;28;20048;-58
2022/08/03 05:29:56;;;;;;;15.75;7.15;;;;;;;20.34;73.48;101115.53;5096571;28;20044;-58
2022/08/03 05:32:23;;;;;;;15.73;7.70;;;;;;;20.35;73.60;101108.28;5096079;28;20052;-58
2022/08/03 05:34:50;;;;;;;16.50;7.60;;;;;;;20.41;72.87;101108.28;5096160;28;20452;-58
2022/08/03 05:37:16;;;;;;;17.13;8.07;;;;;;;20.42;72.77;101107.22;5096154;28;20075;-58
2022/08/03 05:39:43;;;;;;;18.30;6.75;;;;;;;20.47;72.70;101115.50;5096102;28;20491;-58
2022/08/03 05:42:14;;;;;;;17.90;7.53;;;;;;;20.54;72.36;101110.09;5096346;28;20036;-58
2022/08/03 05:44:40;;;;;;;18.02;7.30;;;;;;;20.55;72.05;101109.03;5096359;28;20093;-58
2022/08/03 05:47:07;;;;;;;14.27;7.10;;;;;;;20.60;71.80;101100.34;5096306;28;20040;-58
2022/08/03 05:49:35;;;;;;;18.70;7.22;;;;;;;20.68;71.78;101105.53;5096321;28;20131;-58
2022/08/03 05:52:01;;;;;;;15.32;7.47;;;;;;;20.63;71.15;101106.16;5095939;28;20036;-58
2022/08/03 05:54:28;;;;;;;20.33;7.45;;;;;;;20.66;71.11;101111.13;5094912;28;20044;-58
2022/08/03 05:56:55;;;;;;;13.07;7.20;;;;;;;20.71;70.87;101107.78;5095610;28;20097;-58
2022/08/03 05:59:21;;;;;;;13.75;7.15;;;;;;;20.73;71.30;101107.59;5095863;28;20083;-58
2022/08/03 06:02:03;;;;;;;20.77;7.43;;;;;;;20.68;70.82;101103.66;5096231;28;20040;-58
2022/08/03 06:04:29;;;;;;;18.60;7.00;;;;;;;20.75;70.94;101113.59;5095425;28;20052;-58
2022/08/03 06:06:56;;;;;;;17.80;7.07;;;;;;;20.83;70.20;101106.09;5095744;28;20083;-58
2022/08/03 06:09:23;;;;;;;16.13;7.00;;;;;;;20.86;70.65;101111.06;5095769;28;20083;-58
2022/08/03 06:11:49;;;;;;;13.77;6.85;;;;;;;20.94;70.43;101109.16;5095422;28;20055;-58
2022/08/03 06:14:16;;;;;;;16.30;7.35;;;;;;;20.98;70.04;101105.00;5095803;28;20048;-58
2022/08/03 06:16:43;;;;;;;18.02;7.40;;;;;;;21.01;69.91;101113.50;5095646;28;20044;-58
2022/08/03 06:19:09;;;;;;;19.58;7.93;;;;;;;21.06;69.98;101115.53;5095146;28;20514;-58
2022/08/03 06:21:36;;;;;;;17.65;7.45;;;;;;;21.04;69.77;101113.06;5094293;28;20529;-58
2022/08/03 06:24:03;;;;;;;20.48;7.93;;;;;;;21.12;69.73;101117.41;5095452;28;20097;-58
2022/08/03 06:26:31;;;;;;;19.23;7.55;;;;;;;21.13;69.79;101113.63;5094456;28;20052;-58
2022/08/03 06:28:58;;;;;;;22.33;7.90;;;;;;;21.15;69.44;101118.81;5095432;28;20072;-59
2022/08/03 06:31:28;;;;;;;18.77;8.18;;;;;;;21.18;69.02;101118.41;5094820;28;20093;-58
2022/08/03 06:33:55;;;;;;;21.60;7.70;;;;;;;21.21;68.91;101118.81;5095278;28;20179;-58
2022/08/03 06:36:22;;;;;;;19.17;8.55;;;;;;;21.25;68.67;101121.91;5095140;28;20052;-58
2022/08/03 06:38:49;;;;;;;19.27;8.48;;;;;;;21.27;69.53;101126.03;5095017;28;20036;-58
2022/08/03 06:41:16;;;;;;;19.98;8.07;;;;;;;21.28;69.23;101124.13;5095113;28;20144;-58
2022/08/03 06:43:43;;;;;;;20.35;8.35;;;;;;;21.39;68.77;101123.47;5095146;28;20044;-58
2022/08/03 06:46:09;;;;;;;17.35;8.05;;;;;;;21.49;68.76;101123.03;5095081;28;20048;-58
2022/08/03 06:48:36;;;;;;;21.88;7.68;;;;;;;21.49;68.26;101120.34;5094947;28;20122;-58
2022/08/03 06:51:03;;;;;;;19.95;8.40;;;;;;;21.54;68.20;101125.06;5095020;28;20044;-58
2022/08/03 06:53:29;;;;;;;27.30;8.80;;;;;;;21.51;67.82;101120.13;5095059;28;20105;-58
2022/08/03 06:55:56;;;;;;;18.35;7.97;;;;;;;21.53;68.99;101121.53;5094699;28;20125;-58
2022/08/03 06:58:23;;;;;;;16.33;7.78;;;;;;;21.55;68.55;101119.44;5094810;28;20051;-58
2022/08/03 07:00:50;;;;;;;27.70;8.02;;;;;;;21.58;68.53;101121.72;5094789;28;20048;-58
2022/08/03 07:03:17;;;;;;;20.65;8.45;;;;;;;21.74;67.61;101123.06;5093674;28;20044;-58
2022/08/03 07:05:46;;;;;;;30.35;8.75;;;;;;;21.83;67.72;101118.25;5094341;28;20044;-58
2022/08/03 07:08:13;;;;;;;22.52;8.35;;;;;;;21.95;66.45;101121.03;5089831;28;20051;-58
2022/08/03 07:10:40;;;;;;;17.80;7.90;;;;;;;21.99;67.14;101123.09;5084860;28;20071;-58
2022/08/03 07:13:07;;;;;;;23.48;7.85;;;;;;;22.08;66.25;101120.09;5089903;28;20046;-58
2022/08/03 07:15:34;;;;;;;20.08;7.72;;;;;;;22.08;66.91;101129.03;5073699;28;20581;-58
2022/08/03 07:18:01;;;;;;;18.55;7.25;;;;;;;22.10;67.15;101132.31;5074270;28;20040;-58
2022/08/03 07:20:28;;;;;;;22.05;8.10;;;;;;;22.15;67.07;101137.06;5092905;28;20089;-58
2022/08/03 07:22:57;;;;;;;15.13;8.05;;;;;;;22.51;64.09;101132.81;5094400;28;20040;-58
2022/08/03 07:25:24;;;;;;;31.15;9.60;;;;;;;22.54;64.05;101135.91;5094443;28;20485;-58
2022/08/03 07:27:51;;;;;;;22.52;7.32;;;;;;;22.70;63.26;101141.75;5094338;28;20444;-58
2022/08/03 07:30:17;;;;;;;17.38;7.30;;;;;;;22.64;63.22;101137.25;5093964;28;20105;-58
2022/08/03 07:32:45;;;;;;;16.00;7.25;;;;;;;22.77;63.32;101139.81;5094429;28;20044;-61
2022/08/03 07:35:12;;;;;;;15.05;7.07;;;;;;;22.83;63.45;101135.38;5083668;28;20040;-62
2022/08/03 07:37:39;;;;;;;17.98;5.90;;;;;;;22.97;61.41;101139.56;5081254;28;20077;-62
2022/08/03 07:40:06;;;;;;;20.60;6.10;;;;;;;23.00;61.60;101137.25;5078534;28;20094;-61
2022/08/03 07:42:33;;;;;;;13.20;5.75;;;;;;;23.12;60.44;101141.91;5082788;28;20051;-61
2022/08/03 07:44:59;;;;;;;15.95;5.38;;;;;;;23.11;60.31;101140.28;5091900;28;20044;-62
2022/08/03 07:47:29;;;;;;;11.57;5.15;;;;;;;23.36;59.60;101140.16;5092629;28;20051;-62
2022/08/03 07:49:56;;;;;;;16.50;5.15;;;;;;;23.47;58.64;101135.84;5074610;28;20444;-62
2022/08/03 07:52:54;;;;;;;20.08;4.85;;;;;;;23.68;58.24;101140.72;5072731;28;20496;-61
2022/08/03 07:55:10;;;;;;;15.27;6.10;;;;;;;23.76;58.53;101134.97;5074944;28;20483;-61
2022/08/03 07:57:36;;;;;;;13.88;4.68;;;;;;;23.78;57.96;101142.88;5076917;28;20459;-61
2022/08/03 08:00:07;;;;;;;13.70;5.28;;;;;;;23.96;56.66;101139.28;5077968;28;20441;-62
2022/08/03 08:02:41;;;;;;;16.00;4.40;;;;;;;23.89;57.56;101131.25;5090836;28;20032;-61
2022/08/03 08:05:09;;;;;;;12.35;4.30;;;;;;;24.00;57.22;101131.53;5091368;28;20043;-62
2022/08/03 08:07:37;;;;;;;14.15;4.30;;;;;;;24.22;56.63;101123.63;5072335;28;20044;-61
2022/08/03 08:10:05;;;;;;;12.93;5.10;;;;;;;24.38;56.25;101122.09;5072392;28;20459;-62
2022/08/03 08:12:32;;;;;;;16.23;4.75;;;;;;;24.41;55.96;101122.41;5093552;28;20035;-62
2022/08/03 08:14:59;;;;;;;13.10;3.97;;;;;;;24.54;55.41;101129.53;5092563;28;20093;-62
2022/08/03 08:17:26;;;;;;;17.10;4.18;;;;;;;24.45;55.99;101130.91;5092301;28;20048;-62
2022/08/03 08:19:52;;;;;;;20.88;6.90;;;;;;;24.65;55.40;101127.84;5092396;28;20051;-62
2022/08/03 08:22:19;;;;;;;12.68;4.55;;;;;;;24.90;54.46;101120.28;5090671;28;20097;-62
2022/08/03 08:24:47;;;;;;;11.57;3.88;;;;;;;25.00;54.15;101121.53;5092274;28;20097;-61
2022/08/03 08:27:15;;;;;;;17.50;4.00;;;;;;;25.01;53.72;101134.03;5075370;28;20049;-62
2022/08/03 08:29:41;;;;;;;11.52;3.53;;;;;;;25.03;54.25;101127.31;5080311;28;20044;-61
2022/08/03 08:32:10;;;;;;;20.88;8.77;;;;;;;25.14;53.66;101131.03;5092367;28;20044;-61
2022/08/03 08:34:37;;;;;;;12.45;3.90;;;;;;;25.27;52.21;101124.53;5090667;28;20074;-61
2022/08/03 08:37:04;;;;;;;13.05;3.88;;;;;;;25.37;52.57;101129.31;5073799;28;20110;-62
2022/08/03 08:39:31;;;;;;;11.13;3.90;;;;;;;25.28;52.71;101112.59;5071970;28;20449;-62
2022/08/03 08:41:57;;;;;;;16.40;3.97;;;;;;;25.50;52.93;101120.84;5087616;28;20375;-61
2022/08/03 08:44:24;;;;;;;14.15;4.57;;;;;;;25.63;51.82;101117.84;5073608;28;20102;-61
2022/08/03 08:46:54;;;;;;;16.40;4.63;;;;;;;25.80;51.46;101127.91;5073343;28;20098;-61
2022/08/03 08:49:26;;;;;;;18.25;4.57;;;;;;;25.76;51.61;101124.00;5072016;28;20486;-61
2022/08/03 08:51:55;;;;;;;18.02;3.75;;;;;;;25.99;51.54;101123.88;5071807;28;20123;-62
2022/08/03 08:54:22;;;;;;;16.48;4.85;;;;;;;26.00;51.17;101122.00;5076997;28;20629;-63
2022/08/03 08:56:51;;;;;;;14.18;5.40;;;;;;;26.04;51.62;101126.69;5087211;28;20101;-62
2022/08/03 08:59:19;;;;;;;14.68;4.05;;;;;;;26.20;50.45;101125.03;5089269;28;20061;-63
2022/08/03 09:01:46;;;;;;;13.63;3.70;;;;;;;26.33;49.69;101121.13;5075806;28;20056;-62
2022/08/03 09:04:13;;;;;;;13.35;4.07;;;;;;;26.45;49.53;101123.75;5075578;28;20052;-62
2022/08/03 09:06:39;;;;;;;19.13;3.90;;;;;;;26.66;48.60;101126.78;5094183;28;20070;-63
2022/08/03 09:09:07;;;;;;;19.13;3.88;;;;;;;26.73;48.83;101117.34;5095491;28;20048;-62
2022/08/03 09:11:34;;;;;;;15.73;3.55;;;;;;;26.63;48.38;101122.66;5094022;28;20389;-63
2022/08/03 09:14:01;;;;;;;15.85;3.85;;;;;;;26.55;48.65;101123.06;5096289;28;20048;-62
2022/08/03 09:16:28;;;;;;;22.05;3.75;;;;;;;26.66;48.32;101118.63;5095917;28;20040;-63
2022/08/03 09:19:09;;;;;;;15.43;3.85;;;;;;;26.82;48.91;101109.56;5090476;28;20052;-62
2022/08/03 09:21:36;;;;;;;;;;;;;;;27.04;47.93;101116.91;5084356;28;20040;-62
2022/08/03 09:24:04;;;;;;;15.82;3.67;;;;;;;27.43;47.69;101127.66;5075352;28;19920;-62
2022/08/03 09:26:34;;;;;;;15.70;3.60;;;;;;;27.61;47.41;101126.47;5076364;28;20189;-62
2022/08/03 09:29:04;;;;;;;22.10;4.15;;;;;;;27.72;46.05;101118.16;5082081;28;20069;-62
2022/08/03 09:31:37;;;;;;;14.43;3.13;;;;;;;27.81;45.07;101123.91;5094664;28;20123;-62
2022/08/03 09:34:06;;;;;;;13.10;3.25;;;;;;;27.92;44.40;101120.25;5080873;28;20048;-62
2022/08/03 09:36:39;;;;;;;19.23;3.47;;;;;;;27.85;45.30;101122.34;5074807;28;20195;-62
2022/08/03 09:39:10;;;;;;;11.52;3.40;;;;;;;28.05;44.83;101116.25;5076027;28;20057;-63
2022/08/03 09:41:41;;;;;;;15.32;3.10;;;;;;;28.28;43.79;101119.66;5075044;28;20048;-62
2022/08/03 09:44:08;;;;;;;;;;;;;;;28.29;42.84;101118.56;5075945;28;20572;-62
2022/08/03 09:46:51;;;;;;;18.45;2.78;;;;;;;28.34;43.19;101113.97;5075248;28;19975;-62
2022/08/03 09:49:18;;;;;;;15.45;2.50;;;;;;;28.41;42.12;101127.34;5088291;28;20040;-62
2022/08/03 09:51:45;;;;;;;11.77;2.70;;;;;;;28.56;41.59;101121.22;5081414;28;20081;-62
2022/08/03 09:54:12;;;;;;;10.40;2.53;;;;;;;28.58;41.72;101108.13;5095233;28;20039;-62
2022/08/03 09:56:46;;;;;;;15.02;2.45;;;;;;;28.59;41.48;101117.13;5095190;28;20123;-62
2022/08/03 09:59:23;;;;;;;16.45;2.53;;;;;;;28.64;42.52;101117.97;5094839;28;20089;-63
2022/08/03 10:01:50;;;;;;;16.85;2.42;;;;;;;28.93;41.40;101109.34;5094783;28;20043;-63
2022/08/03 10:04:17;;;;;;;11.55;2.50;;;;;;;29.00;40.65;101112.63;5072028;28;20106;-63
2022/08/03 10:06:45;;;;;;;9.43;2.58;;;;;;;29.18;40.37;101118.69;5074490;28;20067;-62
2022/08/03 10:09:14;;;;;;;21.20;2.70;;;;;;;29.20;40.60;101111.91;5075633;28;20094;-62
2022/08/03 10:11:43;;;;;;;15.45;2.85;;;;;;;29.48;40.35;101105.09;5075256;28;20043;-63
2022/08/03 10:14:18;;;;;;;12.85;2.55;;;;;;;29.63;39.57;101112.50;5094922;28;20516;-62
2022/08/03 10:16:46;;;;;;;13.95;2.20;;;;;;;29.84;38.37;101104.31;5080215;28;20052;-63
2022/08/03 10:19:14;;;;;;;8.65;2.40;;;;;;;29.73;39.57;101110.84;5083709;28;20037;-63
2022/08/03 10:21:48;;;;;;;16.92;2.65;;;;;;;29.93;38.49;101113.59;5094410;28;20119;-62
2022/08/03 10:24:17;;;;;;;11.93;2.60;;;;;;;29.93;38.51;101102.66;5094210;28;20062;-62
2022/08/03 10:26:45;;;;;;;11.43;2.47;;;;;;;30.37;37.62;101101.22;5095062;28;20076;-63
2022/08/03 10:29:20;;;;;;;13.63;2.67;;;;;;;30.21;37.35;101100.41;5078354;28;20091;-62
2022/08/03 10:31:48;;;;;;;19.08;2.40;;;;;;;30.19;37.15;101100.69;5093481;28;20044;-62
2022/08/03 10:34:22;;;;;;;11.15;2.33;;;;;;;30.20;37.85;101098.78;5093464;28;20093;-62
2022/08/03 10:36:54;;;;;;;17.50;2.65;;;;;;;30.46;37.92;101093.25;5093281;28;20056;-62
2022/08/03 10:39:26;;;;;;;10.77;2.58;;;;;;;30.44;36.94;101090.81;5087640;28;20590;-62
2022/08/03 10:41:56;;;;;;;11.90;2.33;;;;;;;30.27;36.46;101091.13;5074178;28;20072;-62
2022/08/03 10:44:28;;;;;;;12.02;2.40;;;;;;;30.34;36.59;101083.44;5075837;28;20040;-62
2022/08/03 10:46:55;;;;;;;14.50;2.47;;;;;;;30.43;37.02;101076.31;5073945;28;20494;-62
2022/08/03 10:49:23;;;;;;;13.02;2.53;;;;;;;30.54;37.54;101073.50;5074164;28;20090;-62
2022/08/03 10:51:50;;;;;;;14.50;2.58;;;;;;;30.65;40.11;101072.38;5072737;28;20197;-61
2022/08/03 10:57:45;;;;;;;13.63;2.20;;;;;;;30.80;36.86;101079.72;5090270;28;20048;-60
2022/08/03 11:00:16;;;;;;;8.57;2.33;;;;;;;30.72;36.50;101072.06;5080570;28;20047;-60
2022/08/03 11:03:05;;;;;;;14.50;2.55;;;;;;;30.75;35.41;101064.09;5096307;28;20040;-60
2022/08/03 11:05:38;;;;;;;13.13;2.42;;;;;;;30.92;35.41;101063.75;5089970;28;20519;-59
2022/08/03 11:08:24;;;;;;;7.00;2.30;;;;;;;30.81;35.37;101057.50;5088511;28;20052;-60
2022/08/03 11:10:55;;;;;;;7.25;2.40;;;;;;;30.99;35.64;101055.25;5072989;28;20075;-58
2022/08/03 11:13:25;;;;;;;13.77;2.38;;;;;;;31.31;34.59;101062.16;5073708;28;20066;-59
2022/08/03 11:15:55;;;;;;;11.65;2.85;;;;;;;31.30;36.87;101058.56;5074076;28;20097;-60
2022/08/03 11:18:23;;;;;;;10.13;2.22;;;;;;;31.72;33.81;101070.03;5093279;28;20050;-60
2022/08/03 11:20:55;;;;;;;17.33;2.28;;;;;;;31.75;33.50;101059.31;5093442;28;20079;-60
2022/08/03 11:23:46;;;;;;;8.00;2.00;;;;;;;31.70;33.57;101058.53;5093276;28;20032;-60
2022/08/03 11:26:20;;;;;;;;;;;;;;;31.45;33.72;101054.88;5092187;28;20041;-61
2022/08/03 11:28:47;;;;;;;10.00;2.25;;;;;;;31.76;34.06;101055.47;5093330;28;20637;-60
2022/08/03 11:34:04;;;;;;;8.63;1.90;;;;;;;31.64;33.46;101046.81;5109836;27;20432;-59
2022/08/03 11:37:11;;;;;;;11.13;2.20;;;;;;;31.56;34.08;101051.00;5109913;28;20054;-59
2022/08/03 11:39:43;;;;;;;15.48;2.08;;;;;;;31.85;33.55;101052.09;5109332;28;20040;-59
2022/08/03 11:42:35;;;;;;;12.43;2.40;;;;;;;31.59;34.65;101048.78;5071868;28;20079;-59